createdAt,value
2019-01-11T04:31:59.769Z,43.40
2019-01-11T04:34:32.639Z,42.23
2019-01-11T04:37:05.307Z,43.83
2019-01-11T04:39:37.957Z,51.07
2019-01-11T04:42:10.616Z,48.37
2019-01-11T04:44:43.254Z,40.30
2019-01-11T04:47:15.919Z,49.50
2019-01-11T04:49:48.559Z,49.27
2019-01-11T04:52:21.214Z,51.27
2019-01-11T04:54:53.858Z,46.97
2019-01-11T04:57:26.519Z,47.43
2019-01-11T04:59:59.158Z,57.10
2019-01-11T05:02:31.823Z,43.20
2019-01-11T05:05:04.928Z,49.17
2019-01-11T05:07:37.588Z,50.53
2019-01-11T05:10:11.071Z,48.47
2019-01-11T05:12:43.735Z,42.17
2019-01-11T05:15:16.385Z,56.13
2019-01-11T05:17:49.272Z,53.37
2019-01-11T05:20:21.932Z,49.77
2019-01-11T05:22:54.592Z,51.47
2019-01-11T05:25:27.225Z,45.20
2019-01-11T05:27:59.887Z,46.40
2019-01-11T05:30:32.526Z,42.23
2019-01-11T05:33:05.192Z,46.17
2019-01-11T05:35:37.837Z,48.83
2019-01-11T05:38:10.491Z,52.37
2019-01-11T05:40:43.126Z,48.80
2019-01-11T05:43:16.019Z,46.80
2019-01-11T05:45:48.662Z,52.17
2019-01-11T05:48:21.550Z,44.33
2019-01-11T05:50:54.294Z,45.10
2019-01-11T05:53:26.959Z,46.60
2019-01-11T05:55:59.600Z,42.03
2019-01-11T05:58:32.264Z,45.17
2019-01-11T06:01:04.919Z,44.77
2019-01-11T06:03:37.582Z,44.40
2019-01-11T06:06:10.239Z,45.03
2019-01-11T06:08:42.891Z,51.93
2019-01-11T06:11:15.530Z,44.83
2019-01-11T06:13:48.426Z,43.57
2019-01-11T06:16:21.061Z,41.67
2019-01-11T06:18:53.747Z,47.60
2019-01-11T06:21:26.406Z,40.43
2019-01-11T06:23:59.066Z,42.80
2019-01-11T06:26:31.703Z,43.27
2019-01-11T06:29:04.363Z,45.83
2019-01-11T06:31:37.018Z,42.70
2019-01-11T06:34:09.915Z,40.90
2019-01-11T06:36:42.557Z,46.50
2019-01-11T06:39:16.344Z,46.47
2019-01-11T06:41:48.998Z,44.47
2019-01-11T06:44:21.654Z,43.17
2019-01-11T06:46:54.530Z,46.67
2019-01-11T06:49:27.178Z,43.60
2019-01-11T06:51:59.826Z,38.97
2019-01-11T06:54:32.478Z,38.47
2019-01-11T06:57:05.159Z,39.43
2019-01-11T06:59:37.833Z,43.97
2019-01-11T07:02:10.482Z,38.77
2019-01-11T07:04:43.371Z,44.23
2019-01-11T07:07:16.006Z,43.13
2019-01-11T07:09:48.909Z,39.53
2019-01-11T07:12:21.542Z,38.23
2019-01-11T07:14:54.214Z,37.97
2019-01-11T07:17:26.854Z,38.23
2019-01-11T07:20:05.513Z,38.83
2019-01-11T07:22:34.495Z,34.60
2019-01-11T07:25:07.414Z,39.30
2019-01-11T07:27:40.058Z,36.67
2019-01-11T07:30:12.738Z,39.03
2019-01-11T07:32:45.386Z,34.60
2019-01-11T07:35:18.030Z,35.80
2019-01-11T07:37:50.683Z,36.90
2019-01-11T07:40:23.395Z,37.53
2019-01-11T07:42:56.047Z,33.80
2019-01-11T07:45:28.935Z,38.80
2019-01-11T07:48:01.598Z,36.83
2019-01-11T07:50:34.271Z,37.57
2019-01-11T07:53:07.647Z,37.20
2019-01-11T07:55:40.303Z,39.03
2019-01-11T07:58:12.959Z,41.77
2019-01-11T08:00:45.638Z,36.07
2019-01-11T08:03:18.307Z,36.87
2019-01-11T08:05:50.974Z,37.57
2019-01-11T08:08:23.663Z,35.17
2019-01-11T08:10:56.670Z,37.10
2019-01-11T08:13:29.330Z,38.77
2019-01-11T08:16:01.999Z,37.57
2019-01-11T08:18:34.660Z,42.57
2019-01-11T08:21:07.308Z,40.20
2019-01-11T08:23:39.947Z,39.00
2019-01-11T08:26:12.642Z,38.50
2019-01-11T08:28:45.528Z,41.43
2019-01-11T08:31:18.434Z,40.27
2019-01-11T08:33:51.075Z,41.30
2019-01-11T08:36:24.214Z,38.10
2019-01-11T08:38:56.853Z,43.03
2019-01-11T08:41:29.526Z,42.50
2019-01-11T08:44:02.182Z,40.00
2019-01-11T08:46:34.853Z,39.73
2019-01-11T08:49:07.490Z,37.27
2019-01-11T08:51:40.150Z,35.77
2019-01-11T08:54:12.818Z,39.47
2019-01-11T08:56:45.488Z,37.83
2019-01-11T08:59:18.146Z,39.23
2019-01-11T09:01:51.057Z,34.43
2019-01-11T09:04:23.710Z,38.07
2019-01-11T09:06:56.380Z,35.43
2019-01-11T09:09:29.030Z,37.70
2019-01-11T09:12:01.697Z,38.93
2019-01-11T09:14:34.338Z,35.03
2019-01-11T09:17:06.994Z,34.20
2019-01-11T09:19:39.644Z,36.27
2019-01-11T09:22:12.347Z,35.90
2019-01-11T09:24:45.311Z,36.40
2019-01-11T09:27:17.978Z,39.93
2019-01-11T09:29:50.638Z,39.30
2019-01-11T09:32:23.551Z,35.53
2019-01-11T09:34:56.203Z,34.73
2019-01-11T09:37:28.866Z,36.57
2019-01-11T09:40:01.542Z,32.03
2019-01-11T09:42:34.906Z,35.13
2019-01-11T09:45:07.591Z,34.87
2019-01-11T09:47:40.479Z,29.43
2019-01-11T09:50:13.168Z,34.77
2019-01-11T09:52:45.830Z,38.60
2019-01-11T09:55:18.470Z,31.60
2019-01-11T09:57:51.122Z,33.23
2019-01-11T10:00:24.354Z,27.93
2019-01-11T10:02:57.007Z,30.03
2019-01-11T10:05:29.887Z,32.60
2019-01-11T10:08:02.598Z,28.43
2019-01-11T10:10:35.263Z,30.03
2019-01-11T10:13:07.918Z,30.73
2019-01-11T10:15:40.562Z,28.63
2019-01-11T10:18:13.223Z,30.30
2019-01-11T10:20:46.104Z,30.87
2019-01-11T10:23:18.986Z,29.23
2019-01-11T10:25:51.870Z,28.90
2019-01-11T10:28:24.754Z,29.47
2019-01-11T10:31:00.677Z,35.27
2019-01-11T10:33:36.127Z,31.67
2019-01-11T10:36:06.186Z,31.27
2019-01-11T10:38:39.070Z,33.17
2019-01-11T10:41:11.736Z,37.40
2019-01-11T10:43:44.397Z,36.17
2019-01-11T10:46:17.038Z,36.30
2019-01-11T10:48:49.706Z,31.53
2019-01-11T10:51:28.033Z,33.40
2019-01-11T10:53:57.002Z,34.37
2019-01-11T10:56:29.638Z,32.83
2019-01-11T10:59:02.298Z,32.77
2019-01-11T11:01:34.954Z,36.27
2019-01-11T11:04:07.611Z,36.60
2019-01-11T11:06:40.254Z,37.63
2019-01-11T11:09:12.914Z,37.27
2019-01-11T11:11:45.566Z,39.97
2019-01-11T11:14:18.246Z,43.57
2019-01-11T11:16:50.887Z,39.43
2019-01-11T11:19:23.554Z,41.77
2019-01-11T11:21:56.201Z,41.90
2019-01-11T11:24:28.894Z,45.93
2019-01-11T11:27:01.542Z,41.93
2019-01-11T11:29:34.199Z,44.33
2019-01-11T11:32:07.082Z,45.80
2019-01-11T11:34:40.018Z,43.63
2019-01-11T11:37:12.662Z,46.63
2019-01-11T11:39:45.378Z,51.97
2019-01-11T11:42:19.013Z,44.63
2019-01-11T11:44:51.686Z,42.10
2019-01-11T11:47:24.335Z,41.27
2019-01-11T11:49:56.992Z,47.87
2019-01-11T11:52:29.642Z,42.90
2019-01-11T11:55:02.397Z,42.00
2019-01-11T11:57:35.040Z,44.80
2019-01-11T12:00:10.918Z,42.17
2019-01-11T12:02:43.804Z,44.73
2019-01-11T12:05:16.509Z,40.17
2019-01-11T12:07:49.391Z,46.53
2019-01-11T12:10:22.278Z,43.63
2019-01-11T12:12:55.178Z,48.00
2019-01-11T12:15:27.910Z,48.80
2019-01-11T12:18:00.790Z,48.67
2019-01-11T12:20:33.466Z,45.13
2019-01-11T12:23:06.115Z,44.97
2019-01-11T12:25:38.770Z,47.87
2019-01-11T12:28:12.533Z,59.13
2019-01-11T12:30:45.486Z,64.93
2019-01-11T12:33:18.138Z,50.63
2019-01-11T12:35:51.022Z,56.57
2019-01-11T12:38:23.755Z,54.53
2019-01-11T12:40:56.402Z,52.33
2019-01-11T12:43:29.054Z,50.90
2019-01-11T12:46:01.709Z,46.87
2019-01-11T12:48:34.594Z,57.03
2019-01-11T12:51:07.299Z,53.93
2019-01-11T12:53:39.935Z,50.57
2019-01-11T12:56:12.591Z,54.13
2019-01-11T12:58:45.238Z,56.60
2019-01-11T13:01:18.134Z,54.77
2019-01-11T13:03:50.799Z,56.37
2019-01-11T13:06:23.443Z,47.80
2019-01-11T13:08:56.094Z,51.73
2019-01-11T13:11:28.758Z,47.77
2019-01-11T13:14:01.411Z,54.60
2019-01-11T13:16:34.070Z,48.10
2019-01-11T13:19:06.958Z,63.33
2019-01-11T13:21:39.631Z,60.83
2019-01-11T13:24:12.295Z,58.37
2019-01-11T13:26:44.962Z,61.77
2019-01-11T13:29:17.610Z,64.50
2019-01-11T13:31:50.299Z,65.00
2019-01-11T13:34:23.166Z,57.63
2019-01-11T13:36:55.833Z,60.53
2019-01-11T13:39:28.479Z,64.20
2019-01-11T13:42:01.126Z,54.63
2019-01-11T13:44:33.766Z,56.63
2019-01-11T13:47:06.419Z,52.33
2019-01-11T13:49:39.140Z,59.70
2019-01-11T13:52:11.798Z,58.90
2019-01-11T13:54:44.438Z,54.27
2019-01-11T13:57:17.093Z,59.70
2019-01-11T13:59:49.763Z,55.97
2019-01-11T14:02:22.409Z,49.00
2019-01-11T14:04:55.049Z,50.77
2019-01-11T14:07:27.699Z,41.90
2019-01-11T14:10:00.342Z,47.87
2019-01-11T14:12:33.007Z,45.30
2019-01-11T14:15:05.829Z,41.27
2019-01-11T14:17:38.479Z,41.57
2019-01-11T14:20:11.147Z,42.73
2019-01-11T14:22:43.794Z,39.17
2019-01-11T14:25:17.198Z,36.40
2019-01-11T14:27:49.905Z,39.37
2019-01-11T14:30:22.546Z,35.53
2019-01-11T14:32:55.206Z,34.97
2019-01-11T14:35:27.857Z,36.73
2019-01-11T14:38:00.498Z,40.27
2019-01-11T14:40:33.137Z,39.00
2019-01-11T14:43:05.786Z,37.60
2019-01-11T14:45:39.270Z,37.60
2019-01-11T14:48:12.046Z,41.40
2019-01-11T14:50:44.926Z,35.97
2019-01-11T14:53:17.589Z,33.60
2019-01-11T14:55:56.044Z,41.63
2019-01-11T14:58:28.672Z,43.53
2019-01-11T15:00:59.213Z,39.67
2019-01-11T15:03:31.854Z,38.47
2019-01-11T15:06:04.543Z,43.53
2019-01-11T15:08:37.212Z,41.07
2019-01-11T15:11:09.850Z,41.90
2019-01-11T15:13:42.498Z,39.87
2019-01-11T15:16:15.134Z,43.57
2019-01-11T15:18:47.790Z,42.50
2019-01-11T15:21:20.430Z,48.57
2019-01-11T15:23:53.111Z,43.57
2019-01-11T15:26:25.750Z,47.37
2019-01-11T15:28:58.407Z,46.07
2019-01-11T15:31:31.042Z,47.17
2019-01-11T15:34:03.703Z,45.70
2019-01-11T15:36:36.338Z,45.03
2019-01-11T15:39:08.992Z,45.60
2019-01-11T15:41:41.625Z,43.50
2019-01-11T15:44:14.291Z,49.50
2019-01-11T15:46:46.930Z,54.40
2019-01-11T15:49:19.591Z,45.13
2019-01-11T15:51:52.490Z,45.57
2019-01-11T15:54:25.198Z,46.03
2019-01-11T15:56:57.879Z,49.60
2019-01-11T15:59:30.531Z,36.57
2019-01-11T16:02:03.186Z,42.80
2019-01-11T16:04:36.134Z,35.60
2019-01-11T16:07:08.775Z,37.90
2019-01-11T16:09:55.382Z,41.60
2019-01-11T16:12:40.229Z,35.70
2019-01-11T16:15:40.559Z,42.27
2019-01-11T16:18:20.174Z,37.67
2019-01-11T16:20:52.825Z,40.70
2019-01-11T16:23:25.493Z,40.43
2019-01-11T16:25:58.146Z,37.40
2019-01-11T16:28:30.821Z,36.93
2019-01-11T16:31:03.490Z,33.97
2019-01-11T16:33:36.150Z,34.53
2019-01-11T16:36:08.809Z,37.03
2019-01-11T16:38:41.454Z,35.13
2019-01-11T16:41:14.112Z,37.37
2019-01-11T16:43:46.742Z,37.00
2019-01-11T16:46:19.409Z,31.10
2019-01-11T16:48:52.069Z,31.53
2019-01-11T16:51:24.726Z,34.27
2019-01-11T16:53:57.371Z,30.87
2019-01-11T16:56:30.022Z,27.30
2019-01-11T16:59:02.746Z,44.80
2019-01-11T17:01:35.394Z,27.20
2019-01-11T17:04:08.034Z,30.47
2019-01-11T17:06:40.707Z,24.37
2019-01-11T17:09:13.434Z,28.73
2019-01-11T17:11:46.205Z,21.73
2019-01-11T17:14:18.858Z,27.00
2019-01-11T17:16:51.534Z,25.57
2019-01-11T17:19:24.167Z,22.40
2019-01-11T17:21:56.815Z,19.73
2019-01-11T17:24:29.458Z,23.47
2019-01-11T17:27:02.126Z,24.20
2019-01-11T17:29:34.998Z,23.73
2019-01-11T17:32:07.654Z,26.03
2019-01-11T17:34:40.297Z,26.00
2019-01-11T17:37:12.962Z,22.10
2019-01-11T17:39:45.614Z,26.93
2019-01-11T17:42:18.261Z,24.70
2019-01-11T17:44:50.934Z,23.40
2019-01-11T17:47:23.626Z,31.00
2019-01-11T17:50:01.108Z,25.80
2019-01-11T17:52:30.879Z,24.70
2019-01-11T17:55:03.669Z,25.73
2019-01-11T17:57:36.322Z,26.13
2019-01-11T18:00:13.448Z,25.47
2019-01-11T18:02:46.098Z,22.90
2019-01-11T18:05:19.020Z,27.57
2019-01-11T18:07:51.672Z,27.93
2019-01-11T18:10:24.303Z,25.67
2019-01-11T18:12:56.958Z,26.93
2019-01-11T18:15:29.832Z,28.17
2019-01-11T18:18:02.488Z,26.93
2019-01-11T18:20:36.090Z,25.30
2019-01-11T18:23:10.266Z,25.77
2019-01-11T18:25:43.079Z,27.00
2019-01-11T18:28:15.718Z,26.93
2019-01-11T18:30:48.360Z,24.27
2019-01-11T18:33:21.037Z,27.53
2019-01-11T18:35:53.902Z,28.70
2019-01-11T18:38:26.783Z,28.00
2019-01-11T18:40:59.432Z,28.70
2019-01-11T18:43:32.086Z,27.83
2019-01-11T18:46:04.959Z,26.63
2019-01-11T18:48:37.648Z,31.13
2019-01-11T18:51:10.303Z,27.23
2019-01-11T18:53:42.965Z,32.13
2019-01-11T18:56:15.602Z,29.60
2019-01-11T18:58:48.270Z,26.63
2019-01-11T19:01:20.933Z,34.87
2019-01-11T19:03:53.586Z,32.80
2019-01-11T19:06:26.230Z,35.97
2019-01-11T19:08:58.938Z,30.90
2019-01-11T19:11:31.579Z,33.60
2019-01-11T19:14:04.242Z,29.13
2019-01-11T19:16:37.014Z,31.47
2019-01-11T19:19:09.662Z,27.03
2019-01-11T19:21:42.299Z,32.80
2019-01-11T19:24:15.018Z,31.23
2019-01-11T19:26:47.898Z,33.10
2019-01-11T19:29:20.545Z,33.20
2019-01-11T19:31:53.206Z,31.90
2019-01-11T19:34:25.886Z,32.43
2019-01-11T19:36:58.526Z,31.17
2019-01-11T19:39:31.211Z,35.40
2019-01-11T19:42:03.914Z,31.37
2019-01-11T19:44:36.566Z,31.20
2019-01-11T19:47:09.229Z,30.10
2019-01-11T19:49:41.874Z,33.90
2019-01-11T19:52:14.545Z,35.33
2019-01-11T19:54:47.234Z,32.70
2019-01-11T19:57:19.903Z,33.73
2019-01-11T19:59:52.562Z,36.40
2019-01-11T20:02:25.190Z,34.87
2019-01-11T20:04:57.851Z,37.40
2019-01-11T20:07:30.504Z,33.90
2019-01-11T20:10:03.821Z,34.87
2019-01-11T20:12:36.697Z,31.07
2019-01-11T20:15:09.347Z,35.07
2019-01-11T20:17:42.238Z,29.03
2019-01-11T20:20:14.915Z,33.60
2019-01-11T20:22:47.550Z,34.27
2019-01-11T20:25:21.158Z,29.17
2019-01-11T20:27:53.794Z,36.97
2019-01-11T20:30:27.042Z,32.13
2019-01-11T20:32:59.682Z,31.33
2019-01-11T20:35:33.159Z,30.60
2019-01-11T20:38:05.802Z,27.17
2019-01-11T20:40:38.445Z,28.50
2019-01-11T20:43:11.094Z,27.13
2019-01-11T20:45:43.766Z,26.53
2019-01-11T20:48:16.406Z,26.53
2019-01-11T20:50:49.059Z,28.87
2019-01-11T20:53:21.719Z,29.80
2019-01-11T20:55:54.407Z,27.60
2019-01-11T20:58:27.031Z,26.93
2019-01-11T21:00:59.683Z,25.67
2019-01-11T21:03:32.571Z,27.40
2019-01-11T21:06:05.230Z,28.57
2019-01-11T21:08:37.866Z,26.27
2019-01-11T21:11:10.514Z,29.30
2019-01-11T21:13:43.171Z,25.60
2019-01-11T21:16:15.834Z,28.47
2019-01-11T21:18:48.575Z,36.73
2019-01-11T21:21:21.232Z,27.77
2019-01-11T21:23:54.108Z,32.10
2019-01-11T21:26:26.796Z,29.50
2019-01-11T21:28:59.436Z,26.20
2019-01-11T21:31:32.091Z,25.83
2019-01-11T21:34:04.730Z,33.67
2019-01-11T21:36:37.390Z,29.27
2019-01-11T21:39:10.265Z,31.73
2019-01-11T21:41:43.168Z,25.97
2019-01-11T21:44:15.862Z,27.10
2019-01-11T21:46:48.516Z,30.43
2019-01-11T21:49:21.162Z,27.83
2019-01-11T21:51:53.818Z,25.63
2019-01-11T21:54:26.506Z,27.13
2019-01-11T21:56:59.174Z,30.33
2019-01-11T21:59:31.818Z,28.33
2019-01-11T22:02:04.482Z,29.40
2019-01-11T22:04:37.118Z,29.10
2019-01-11T22:07:09.808Z,28.60
2019-01-11T22:09:42.490Z,28.90
2019-01-11T22:12:15.135Z,26.80
2019-01-11T22:14:47.824Z,32.73
2019-01-11T22:17:20.468Z,29.77
2019-01-11T22:19:53.343Z,35.83
2019-01-11T22:22:25.998Z,30.80
2019-01-11T22:24:58.638Z,29.97
2019-01-11T22:27:31.405Z,27.83
2019-01-11T22:30:06.522Z,31.77
2019-01-11T22:32:39.187Z,30.07
2019-01-11T22:35:11.854Z,29.00
2019-01-11T22:37:44.530Z,30.93
2019-01-11T22:40:21.774Z,29.37
2019-01-11T22:42:56.749Z,34.90
2019-01-11T22:45:29.524Z,31.13
2019-01-11T22:48:02.160Z,32.00
2019-01-11T22:50:34.799Z,39.43
2019-01-11T22:53:07.690Z,33.90
2019-01-11T22:55:40.335Z,38.43
2019-01-11T22:58:12.992Z,35.73
2019-01-11T23:01:13.583Z,32.93
2019-01-11T23:03:49.147Z,34.30
2019-01-11T23:06:46.271Z,35.93
2019-01-11T23:09:21.396Z,34.07
2019-01-11T23:12:13.785Z,32.27
2019-01-11T23:14:46.443Z,35.23
2019-01-11T23:17:40.862Z,29.10
2019-01-11T23:20:13.864Z,32.47
2019-01-11T23:22:46.514Z,28.00
2019-01-11T23:25:19.171Z,25.70
2019-01-11T23:27:51.819Z,30.50
2019-01-11T23:30:24.503Z,27.30
2019-01-11T23:32:57.147Z,24.80
2019-01-11T23:35:30.067Z,31.63
2019-01-11T23:38:02.707Z,27.83
